Happy Valentine's Day! 

Flight Track Log - Related Links

Times and Time Zones

All times are in EST time to prevent confusion due to time zone crossing. See the N589H flight status page for this flight to view local times or setup timezone preferences in your user account.


Time Position Orientation Groundspeed Altitude Reporting Facility
EST Latitude Longitude Course Direction KTS MPH feet Rate Location/Type
Thu 07:47:41 PM 27.9167 -82.7000 North 141 162 500  Level Tampa TRACON
Thu 07:48:29 PM 27.9500 -82.7000 360° North 185 213 1,400 1,389 Climbing Tampa TRACON
Thu 07:49:29 PM 28.0167 -82.7333 336° Northwest 207 238 3,000 1,700 Climbing Tampa TRACON
Thu 07:50:29 PM 28.0667 -82.7333 360° North 221 254 4,800 1,657 Climbing Tampa TRACON
Thu 07:52:30 PM 28.1875 -82.7253 North 212 244 8,000 1,359 Climbing Jacksonville Center
Thu 07:53:00 PM 28.4491 -82.5701 North  Level Estimated
Thu 07:53:30 PM 28.2583 -82.7158 North 237 273 8,900  Level Jacksonville Center
Thu 07:54:30 PM 28.3231 -82.7086 North 242 278 10,800 1,966 Climbing Jacksonville Center
Thu 07:55:29 PM 28.3919 -82.6944 10° North 242 278 12,800 1,900 Climbing Jacksonville Center
Thu 07:56:30 PM 28.4628 -82.6800 10° North 247 284 14,600 1,785 Climbing Jacksonville Center
Thu 07:57:30 PM 28.5336 -82.6633 12° North 252 290 16,400 1,750 Climbing Jacksonville Center
Thu 07:58:30 PM 28.6067 -82.6608 North 257 296 18,100 1,650 Climbing Jacksonville Center
Thu 07:59:30 PM 28.6756 -82.6558 North 252 290 19,700 1,550 Climbing Jacksonville Center
Thu 08:00:30 PM 28.7569 -82.6511 North 252 290 21,200 1,450 Climbing Jacksonville Center
Thu 08:01:30 PM 28.8322 -82.6461 North 252 290 22,600 1,300 Climbing Jacksonville Center
Thu 08:02:30 PM 28.9072 -82.6411 North 257 296 23,800 1,150 Climbing Jacksonville Center
Thu 08:03:30 PM 28.9886 -82.6386 North 268 308 24,900 1,200 Climbing Jacksonville Center
Thu 08:04:30 PM 29.0681 -82.6361 North 278 320 26,200 1,100 Climbing Jacksonville Center
Thu 08:05:30 PM 29.1472 -82.6286 North 278 320 27,100 1,000 Climbing Jacksonville Center
Thu 08:06:30 PM 29.2328 -82.6236 North 284 327 28,200 1,100 Climbing Jacksonville Center
Thu 08:07:30 PM 29.3183 -82.6211 North 290 334 29,300 1,000 Climbing Jacksonville Center
Thu 08:08:30 PM 29.4019 -82.6161 North 295 339 30,200 850 Climbing Jacksonville Center
Thu 08:09:30 PM 29.4833 -82.6111 North 290 334 31,000 700 Climbing Jacksonville Center
Thu 08:10:30 PM 29.5667 -82.6036 North 290 334 31,600 600 Climbing Jacksonville Center
Thu 08:11:30 PM 29.6525 -82.6011 North 295 339 32,200 600 Climbing Jacksonville Center
Thu 08:12:30 PM 29.7381 -82.5958 North 295 339 32,800 550 Climbing Jacksonville Center
Thu 08:13:30 PM 29.8256 -82.5908 North 295 339 33,300 500 Climbing Jacksonville Center
Thu 08:14:30 PM 29.9111 -82.5858 North 306 352 33,800 500 Climbing Jacksonville Center
Thu 08:15:30 PM 29.9989 -82.5783 North 306 352 34,300 600 Climbing Jacksonville Center
Thu 08:16:30 PM 30.0822 -82.5564 13° North 316 364 35,000 350 Climbing Jacksonville Center
Thu 08:17:30 PM 30.1719 -82.5322 13° North 321 369 35,000  Level Jacksonville Center
Thu 08:18:30 PM 30.2681 -82.5078 12° North 328 377 35,000  Level Jacksonville Center
Thu 08:19:30 PM 30.3619 -82.4808 14° North 340 391 35,000  Level Jacksonville Center
Thu 08:20:30 PM 30.4600 -82.4564 12° North 346 398 35,000  Level Jacksonville Center
Thu 08:21:30 PM 30.5600 -82.4319 12° North 357 411 35,000  Level Jacksonville Center
Thu 08:22:30 PM 30.6561 -82.4047 14° North 357 411 35,000  Level Jacksonville Center
Thu 08:23:30 PM 30.7561 -82.3800 12° North 357 411 35,000  Level Jacksonville Center
Thu 08:24:30 PM 30.8564 -82.3528 13° North 357 411 35,000  Level Jacksonville Center
Thu 08:25:30 PM 30.9542 -82.3281 12° North 357 411 35,000  Level Jacksonville Center
Thu 08:26:30 PM 31.0544 -82.3008 13° North 357 411 35,000  Level Jacksonville Center
Thu 08:27:30 PM 31.1544 -82.2758 12° North 357 411 35,000  Level Jacksonville Center
Thu 08:28:30 PM 31.2544 -82.2486 13° North 357 411 35,000  Level Jacksonville Center
Thu 08:29:30 PM 31.3567 -82.2211 13° North 362 417 35,000  Level Jacksonville Center
Thu 08:30:30 PM 31.4589 -82.1936 13° North 367 422 35,000  Level Jacksonville Center
Thu 08:31:30 PM 31.5589 -82.1683 12° North 367 422 35,000  Level Jacksonville Center
Thu 08:32:30 PM 31.6592 -82.1408 13° North 372 428 35,000  Level Jacksonville Center
Thu 08:33:30 PM 31.7694 -82.1106 13° North 372 428 35,000  Level Jacksonville Center
Thu 08:34:30 PM 31.8675 -82.0828 14° North 364 419 35,000  Level Jacksonville Center
Thu 08:35:30 PM 31.9592 -82.0600 12° North 364 419 35,000  Level Jacksonville Center
Thu 08:36:30 PM 32.0697 -82.0319 12° North 364 419 35,000  Level Jacksonville Center
Thu 08:37:30 PM 32.1614 -82.0067 13° North 369 425 35,000  Level Jacksonville Center
Thu 08:38:30 PM 32.2717 -81.9761 13° North 369 425 35,000  Level Jacksonville Center
Thu 08:39:30 PM 32.3739 -81.9456 14° North 368 423 35,000  Level Jacksonville Center
Thu 08:40:30 PM 32.4633 -81.9250 11° North 373 429 35,000  Level Jacksonville Center
Thu 08:41:30 PM 32.5739 -81.8917 14° North 367 422 35,000  Level Jacksonville Center
Thu 08:42:30 PM 32.6739 -81.8658 12° North 372 428 35,000  Level Jacksonville Center
Thu 08:43:30 PM 32.7758 -81.8375 13° North 372 428 35,000  Level Jacksonville Center
Thu 08:44:29 PM 32.8758 -81.8092 13° North 372 428 35,000  Level Jacksonville Center
Thu 08:45:30 PM 32.9758 -81.7808 13° North 372 428 35,000  Level Jacksonville Center
Thu 08:46:29 PM 33.0778 -81.7547 12° North 372 428 35,000  Level Jacksonville Center
Thu 08:47:29 PM 33.1778 -81.7261 13° North 372 428 35,000  Level Jacksonville Center
Thu 08:48:29 PM 33.2694 -81.7025 12° North 372 428 35,000  Level Jacksonville Center
Thu 08:49:30 PM 33.3714 -81.6714 14° North 372 428 35,000  Level Jacksonville Center
Thu 08:50:29 PM 33.4756 -81.6450 12° North 372 428 35,000  Level Jacksonville Center
Thu 08:51:30 PM 33.5775 -81.6186 12° North 377 434 35,000  Level Jacksonville Center
Thu 08:52:30 PM 33.6794 -81.5872 14° North 372 428 35,000  Level Jacksonville Center
Thu 08:53:30 PM 33.7814 -81.5583 13° North 372 428 35,000  Level Jacksonville Center
Thu 08:54:30 PM 33.8853 -81.5292 13° North 372 428 35,000  Level Jacksonville Center
Thu 08:56:30 PM 34.0908 -81.4728 13° North 373 429 35,000  Level Atlanta Center
Thu 08:57:30 PM 34.1925 -81.4419 14° North 378 435 35,000  Level Atlanta Center
Thu 08:58:30 PM 34.3006 -81.4136 12° North 378 435 35,000  Level Atlanta Center
Thu 08:59:30 PM 34.4022 -81.3853 13° North 378 435 35,000  Level Atlanta Center
Thu 09:00:30 PM 34.5036 -81.3544 14° North 372 428 35,000  Level Atlanta Center
Thu 09:01:30 PM 34.6219 -81.3203 13° North 378 435 35,000  Level Atlanta Center
Thu 09:02:30 PM 34.7236 -81.2942 12° North 378 435 35,000  Level Atlanta Center
Thu 09:03:30 PM 34.8272 -81.2656 13° North 373 429 35,000  Level Atlanta Center
Thu 09:04:30 PM 34.9308 -81.2342 14° North 373 429 35,000  Level Atlanta Center
Thu 09:05:30 PM 35.0325 -81.2053 13° North 373 429 35,000  Level Atlanta Center
Thu 09:06:30 PM 35.1342 -81.1764 13° North 373 429 35,000  Level Atlanta Center
Thu 09:07:30 PM 35.2336 -81.1450 14° North 373 429 35,000  Level Atlanta Center
Thu 09:08:30 PM 35.3308 -81.1164 13° North 368 423 35,000  Level Atlanta Center
Thu 09:09:30 PM 35.4303 -81.0872 13° North 368 423 35,000  Level Atlanta Center
Thu 09:10:30 PM 35.5297 -81.0556 15° North 363 418 35,000  Level Atlanta Center
Thu 09:11:30 PM 35.6292 -81.0264 13° North 363 418 35,000  Level Atlanta Center
Thu 09:12:30 PM 35.7306 -80.9972 13° North 368 423 35,000  Level Atlanta Center
Thu 09:13:30 PM 35.8322 -80.9678 13° North 373 429 35,000  Level Atlanta Center
Thu 09:14:30 PM 35.9253 -80.9411 13° North 373 429 35,000  Level Atlanta Center
Thu 09:15:30 PM 36.0267 -80.9089 14° North 373 429 35,000  Level Atlanta Center
Thu 09:16:30 PM 36.1281 -80.8794 13° North 373 429 35,000  Level Atlanta Center
Thu 09:17:30 PM 36.2297 -80.8497 13° North 373 429 35,000  Level Atlanta Center
Thu 09:18:30 PM 36.3331 -80.8172 14° North 373 429 35,000  Level Atlanta Center
Thu 09:20:38 PM 36.5664 -80.7486 13° North 381 438 35,000  Level Washington Center
Thu 09:21:38 PM 36.6678 -80.7217 12° North 376 433 35,000  Level Washington Center
Thu 09:22:36 PM 36.7608 -80.6917 14° North 381 438 35,000  Level Washington Center
Thu 09:23:36 PM 36.8667 -80.6597 14° North 381 438 35,000  Level Washington Center
Thu 09:24:37 PM 36.9744 -80.6278 13° North 381 438 35,000  Level Washington Center
Thu 09:25:38 PM 37.0822 -80.5933 14° North 387 445 35,000  Level Washington Center
Thu 09:26:39 PM 37.1900 -80.5639 12° North 387 445 35,000  Level Washington Center
Thu 09:27:36 PM 37.2997 -80.5292 14° North 394 453 35,000  Level Washington Center
Thu 09:28:37 PM 37.4203 -80.4925 14° North 401 461 35,000  Level Washington Center
Thu 09:29:37 PM 37.5300 -80.4603 13° North 401 461 35,000  Level Washington Center
Thu 09:30:38 PM 37.6419 -80.4256 14° North 401 461 35,000  Level Washington Center
Thu 09:31:36 PM 37.7517 -80.3931 13° North 401 461 35,000  Level Washington Center
Thu 09:32:36 PM 37.8617 -80.3581 14° North 401 461 35,000  Level Washington Center
Thu 09:33:37 PM 37.9736 -80.3231 14° North 401 461 35,000  Level Washington Center
Thu 09:34:38 PM 38.0811 -80.2903 13° North 401 461 35,000  Level Washington Center
Thu 09:35:38 PM 38.1889 -80.2547 15° North 401 461 35,000  Level Washington Center
Thu 09:36:38 PM 38.2861 -80.2264 13° North 401 461 35,000  Level Washington Center
Thu 09:37:37 PM 38.3939 -80.1908 14° North 401 461 35,000  Level Washington Center
Thu 09:38:38 PM 38.5036 -80.1578 13° North 401 461 35,000  Level Washington Center
Thu 09:39:36 PM 38.6131 -80.1247 13° North 401 461 35,000  Level Washington Center
Thu 09:40:37 PM 38.7208 -80.0861 16° North 401 461 35,000  Level Washington Center
Thu 09:42:10 PM 38.8886 -80.0283 15° North 408 470 35,000  Level Cleveland Center
Thu 09:43:11 PM 38.9944 -79.9939 14° North 396 456 35,000  Level Cleveland Center
Thu 09:44:13 PM 39.1236 -79.9514 14° North 398 458 35,000  Level Cleveland Center
Thu 09:45:14 PM 39.2303 -79.9172 14° North 397 457 35,000  Level Cleveland Center
Thu 09:46:16 PM 39.3358 -79.8814 15° North 397 457 35,000  Level Cleveland Center
Thu 09:47:17 PM 39.4417 -79.8486 13° North 395 455 35,000  Level Cleveland Center
Thu 09:48:18 PM 39.5467 -79.8128 15° North 394 453 35,000  Level Cleveland Center
Thu 09:49:20 PM 39.6508 -79.7792 14° North 389 448 35,000  Level Cleveland Center
Thu 09:50:21 PM 39.7544 -79.7444 14° North 388 447 35,000  Level Cleveland Center
Thu 09:51:23 PM 39.8586 -79.7111 14° North 389 448 35,000  Level Cleveland Center
Thu 09:52:24 PM 39.9825 -79.6697 14° North 388 447 35,000  Level Cleveland Center
Thu 09:53:26 PM 40.0875 -79.6394 12° North 387 445 35,000  Level Cleveland Center
Thu 09:54:27 PM 40.1900 -79.6042 15° North 386 444 35,000  Level Cleveland Center
Thu 09:55:28 PM 40.2928 -79.5697 14° North 385 443 35,000  Level Cleveland Center
Thu 09:56:30 PM 40.3942 -79.5358 14° North 383 441 35,000  Level Cleveland Center
Thu 09:57:31 PM 40.4939 -79.5019 14° North 379 436 35,000  Level Cleveland Center
Thu 09:58:33 PM 40.6150 -79.4614 14° North 378 435 35,000  Level Cleveland Center
Thu 09:59:34 PM 40.7156 -79.4272 14° North 377 434 35,000  Level Cleveland Center
Thu 10:00:35 PM 40.8169 -79.3928 14° North 375 432 35,000  Level Cleveland Center
Thu 10:01:37 PM 40.9172 -79.3578 15° North 375 432 35,000  Level Cleveland Center
Thu 10:02:38 PM 41.0186 -79.3228 15° North 378 435 35,000  Level Cleveland Center
Thu 10:03:40 PM 41.1328 -79.2811 15° North 378 435 35,000  Level Cleveland Center
Thu 10:04:41 PM 41.2347 -79.2436 15° North 378 435 35,000  Level Cleveland Center
Thu 10:05:42 PM 41.3375 -79.2078 15° North 379 436 35,000  Level Cleveland Center
Thu 10:06:44 PM 41.4403 -79.1722 15° North 379 436 35,000  Level Cleveland Center
Thu 10:07:45 PM 41.5422 -79.1375 14° North 379 436 35,000  Level Cleveland Center
Thu 10:08:47 PM 41.6575 -79.1014 13° North 382 440 35,000  Level Cleveland Center
Thu 10:09:48 PM 41.7458 -79.0708 14° North 385 443 35,000  Level Cleveland Center
Thu 10:10:50 PM 41.8461 -79.0367 14° North 374 430 35,000  Level Cleveland Center
Thu 10:11:51 PM 41.9478 -78.9969 16° North 372 428 35,000  Level Cleveland Center
Thu 10:12:52 PM 42.0683 -78.9547 15° North 369 425 35,000 -439 Level Cleveland Center
Thu 10:13:54 PM 42.1703 -78.9219 13° North 378 435 34,100 -927 Descending Cleveland Center
Thu 10:14:55 PM 42.2728 -78.8797 17° North 388 447 33,100 -639 Descending Cleveland Center
Thu 10:15:56 PM 42.3817 -78.8422 14° North 400 460 32,800 -488 Descending Cleveland Center
Thu 10:16:58 PM 42.4931 -78.8067 13° North 410 472 32,100 -829 Descending Cleveland Center
Thu 10:17:59 PM 42.6008 -78.7667 15° North 404 465 31,100 -1,082 Descending Cleveland Center
Thu 10:19:00 PM 42.7042 -78.7286 15° North 389 448 29,900 -1,268 Descending Cleveland Center
Thu 10:20:02 PM 42.8050 -78.6933 14° North 380 437 28,500 -1,707 Descending Cleveland Center
Thu 10:21:03 PM 42.9069 -78.6553 15° North 381 438 26,400 -2,195 Descending Cleveland Center
Thu 10:22:05 PM 43.0197 -78.6283 10° North 346 398 24,000 -2,098 Descending Cleveland Center
Thu 10:23:06 PM 43.1089 -78.6092 North 330 380 22,100 -1,943 Descending Cleveland Center
Thu 10:23:50 PM 43.1667 -78.5833 18° North 320 368 20,600 -1,962 Descending Toronto Center
Thu 10:24:50 PM 43.2500 -78.5500 16° North 310 357 18,700 -1,800 Descending Toronto Center
Thu 10:25:50 PM 43.3333 -78.5333 North 300 345 17,000 -1,800 Descending Toronto Center
Thu 10:26:50 PM 43.4167 -78.5333 360° North 290 334 15,100 -2,000 Descending Toronto Center
Thu 10:27:50 PM 43.5000 -78.5000 16° North 280 322 13,000 -1,900 Descending Toronto Center
Thu 10:28:50 PM 43.5500 -78.4667 26° Northeast 280 322 11,300 -900 Descending Toronto Center
Thu 10:29:50 PM 43.6167 -78.4333 20° North 270 311 11,200 -50 Descending Toronto Center
Thu 10:30:50 PM 43.7000 -78.3833 23° Northeast 270 311 11,200 -100 Level Toronto Center
Thu 10:31:50 PM 43.7667 -78.3667 10° North 270 311 11,000 -800 Descending Toronto Center
Thu 10:32:50 PM 43.8333 -78.3167 28° Northeast 270 311 9,600 -1,350 Descending Toronto Center
Thu 10:33:50 PM 43.9000 -78.2833 20° North 270 311 8,300 -1,400 Descending Toronto Center
Thu 10:34:50 PM 43.9833 -78.2500 16° North 260 299 6,800 -1,100 Descending Toronto Center
Thu 10:35:50 PM 44.0333 -78.2167 26° Northeast 250 288 6,100 -600 Descending Toronto Center
Thu 10:36:50 PM 44.1000 -78.2000 10° North 220 253 5,600 -900 Descending Toronto Center
Thu 10:37:50 PM 44.1500 -78.1500 36° Northeast 210 242 4,300 -1,300 Descending Toronto Center
Thu 10:39:00 PM 44.2028 -78.2907 334° Northwest  Level Estimated
Thu 10:46:00 PM 44.2167 -78.3500 334° Northwest  Level FlightAware Approximate
Thu 10:47:00 PM 44.2300 -78.3633 334° Northwest  Level Estimated
Thu 10:48:00 PM 44.2300 -78.3633 334° Northwest  Level Estimated
Thu 10:49:00 PM 44.2300 -78.3633 334° Northwest  Level Estimated
Thu 10:50:00 PM 44.2300 -78.3633 334° Northwest  Level Estimated
Thu 10:51:00 PM 44.2300 -78.3633 334° Northwest  Level Estimated

Login

Don't have an account? Register now (free) for customized features, flight alerts, and more!